sensor_id;sensor_type;location;lat;lon;timestamp;P1;durP1;ratioP1;P2;durP2;ratioP2
20336;SDS011;10326;53.660;10.200;2023-05-10T00:01:25;4.05;;;3.17;;
20336;SDS011;10326;53.660;10.200;2023-05-10T00:03:52;4.68;;;3.00;;
20336;SDS011;10326;53.660;10.200;2023-05-10T00:06:20;5.45;;;3.17;;
20336;SDS011;10326;53.660;10.200;2023-05-10T00:08:47;3.35;;;3.05;;
20336;SDS011;10326;53.660;10.200;2023-05-10T00:11:15;3.90;;;3.28;;
20336;SDS011;10326;53.660;10.200;2023-05-10T00:13:43;3.67;;;2.85;;
20336;SDS011;10326;53.660;10.200;2023-05-10T00:16:10;4.05;;;3.25;;
20336;SDS011;10326;53.660;10.200;2023-05-10T00:18:38;4.68;;;3.15;;
20336;SDS011;10326;53.660;10.200;2023-05-10T00:21:05;3.35;;;3.05;;
20336;SDS011;10326;53.660;10.200;2023-05-10T00:23:32;3.70;;;3.38;;
20336;SDS011;10326;53.660;10.200;2023-05-10T00:26:00;3.78;;;3.38;;
20336;SDS011;10326;53.660;10.200;2023-05-10T00:28:29;4.57;;;3.20;;
20336;SDS011;10326;53.660;10.200;2023-05-10T00:30:56;5.43;;;3.10;;
20336;SDS011;10326;53.660;10.200;2023-05-10T00:33:24;5.38;;;3.00;;
20336;SDS011;10326;53.660;10.200;2023-05-10T00:35:51;4.35;;;3.30;;
20336;SDS011;10326;53.660;10.200;2023-05-10T00:38:18;4.45;;;3.10;;
20336;SDS011;10326;53.660;10.200;2023-05-10T00:40:46;4.18;;;3.30;;
20336;SDS011;10326;53.660;10.200;2023-05-10T00:43:22;3.95;;;2.97;;
20336;SDS011;10326;53.660;10.200;2023-05-10T00:45:50;4.65;;;3.20;;
20336;SDS011;10326;53.660;10.200;2023-05-10T00:48:18;3.85;;;3.30;;
20336;SDS011;10326;53.660;10.200;2023-05-10T00:50:45;3.30;;;3.00;;
20336;SDS011;10326;53.660;10.200;2023-05-10T00:53:13;4.72;;;3.35;;
20336;SDS011;10326;53.660;10.200;2023-05-10T00:55:42;3.65;;;2.90;;
20336;SDS011;10326;53.660;10.200;2023-05-10T00:58:10;3.50;;;3.20;;
20336;SDS011;10326;53.660;10.200;2023-05-10T01:00:37;4.78;;;3.53;;
20336;SDS011;10326;53.660;10.200;2023-05-10T01:03:10;3.97;;;3.10;;
20336;SDS011;10326;53.660;10.200;2023-05-10T01:05:38;3.92;;;3.28;;
20336;SDS011;10326;53.660;10.200;2023-05-10T01:08:05;3.00;;;2.70;;
20336;SDS011;10326;53.660;10.200;2023-05-10T01:10:33;4.70;;;3.28;;
20336;SDS011;10326;53.660;10.200;2023-05-10T01:13:01;3.47;;;3.17;;
20336;SDS011;10326;53.660;10.200;2023-05-10T01:15:29;3.85;;;3.45;;
20336;SDS011;10326;53.660;10.200;2023-05-10T01:17:57;3.28;;;2.97;;
20336;SDS011;10326;53.660;10.200;2023-05-10T01:20:27;5.20;;;3.17;;
20336;SDS011;10326;53.660;10.200;2023-05-10T01:26:14;4.07;;;3.38;;
20336;SDS011;10326;53.660;10.200;2023-05-10T01:29:11;5.10;;;3.05;;
20336;SDS011;10326;53.660;10.200;2023-05-10T01:32:02;3.83;;;3.25;;
20336;SDS011;10326;53.660;10.200;2023-05-10T01:35:00;3.25;;;2.95;;
20336;SDS011;10326;53.660;10.200;2023-05-10T01:37:39;4.30;;;3.20;;
20336;SDS011;10326;53.660;10.200;2023-05-10T01:40:15;3.75;;;2.97;;
20336;SDS011;10326;53.660;10.200;2023-05-10T01:42:53;3.47;;;3.17;;
20336;SDS011;10326;53.660;10.200;2023-05-10T01:45:25;3.80;;;3.50;;
20336;SDS011;10326;53.660;10.200;2023-05-10T01:48:01;5.53;;;3.47;;
20336;SDS011;10326;53.660;10.200;2023-05-10T01:50:34;3.92;;;3.47;;
20336;SDS011;10326;53.660;10.200;2023-05-10T01:53:05;3.55;;;3.00;;
20336;SDS011;10326;53.660;10.200;2023-05-10T01:55:43;4.28;;;3.13;;
20336;SDS011;10326;53.660;10.200;2023-05-10T01:58:17;3.35;;;3.05;;
20336;SDS011;10326;53.660;10.200;2023-05-10T02:00:50;4.15;;;3.10;;
20336;SDS011;10326;53.660;10.200;2023-05-10T02:03:23;4.03;;;3.63;;
20336;SDS011;10326;53.660;10.200;2023-05-10T02:05:51;3.53;;;3.15;;
20336;SDS011;10326;53.660;10.200;2023-05-10T02:08:21;5.82;;;3.53;;
20336;SDS011;10326;53.660;10.200;2023-05-10T02:10:50;4.13;;;3.08;;
20336;SDS011;10326;53.660;10.200;2023-05-10T02:13:23;3.40;;;3.10;;
20336;SDS011;10326;53.660;10.200;2023-05-10T02:15:52;4.50;;;3.28;;
20336;SDS011;10326;53.660;10.200;2023-05-10T02:18:22;5.88;;;3.40;;
20336;SDS011;10326;53.660;10.200;2023-05-10T02:20:52;3.80;;;3.22;;
20336;SDS011;10326;53.660;10.200;2023-05-10T02:23:21;3.60;;;3.30;;
20336;SDS011;10326;53.660;10.200;2023-05-10T02:25:49;4.70;;;3.30;;
20336;SDS011;10326;53.660;10.200;2023-05-10T02:28:19;4.55;;;3.20;;
20336;SDS011;10326;53.660;10.200;2023-05-10T02:30:48;3.65;;;3.28;;
20336;SDS011;10326;53.660;10.200;2023-05-10T02:33:17;3.90;;;3.30;;
20336;SDS011;10326;53.660;10.200;2023-05-10T02:35:47;3.83;;;3.42;;
20336;SDS011;10326;53.660;10.200;2023-05-10T02:38:16;4.72;;;3.60;;
20336;SDS011;10326;53.660;10.200;2023-05-10T02:40:47;4.22;;;3.40;;
20336;SDS011;10326;53.660;10.200;2023-05-10T02:43:15;3.70;;;3.40;;
20336;SDS011;10326;53.660;10.200;2023-05-10T02:45:45;3.80;;;3.50;;
20336;SDS011;10326;53.660;10.200;2023-05-10T02:48:14;4.03;;;3.63;;
20336;SDS011;10326;53.660;10.200;2023-05-10T02:50:42;3.75;;;3.45;;
20336;SDS011;10326;53.660;10.200;2023-05-10T02:53:14;3.80;;;3.33;;
20336;SDS011;10326;53.660;10.200;2023-05-10T02:55:48;3.65;;;3.30;;
20336;SDS011;10326;53.660;10.200;2023-05-10T02:58:18;4.43;;;3.88;;
20336;SDS011;10326;53.660;10.200;2023-05-10T03:00:46;4.55;;;3.38;;
20336;SDS011;10326;53.660;10.200;2023-05-10T03:03:13;4.22;;;3.58;;
20336;SDS011;10326;53.660;10.200;2023-05-10T03:05:40;4.50;;;4.10;;
20336;SDS011;10326;53.660;10.200;2023-05-10T03:08:07;3.80;;;3.50;;
20336;SDS011;10326;53.660;10.200;2023-05-10T03:10:38;5.72;;;3.80;;
20336;SDS011;10326;53.660;10.200;2023-05-10T03:13:26;4.30;;;3.90;;
20336;SDS011;10326;53.660;10.200;2023-05-10T03:16:03;3.80;;;3.40;;
20336;SDS011;10326;53.660;10.200;2023-05-10T03:18:38;3.83;;;3.53;;
20336;SDS011;10326;53.660;10.200;2023-05-10T03:21:11;3.60;;;3.30;;
20336;SDS011;10326;53.660;10.200;2023-05-10T03:23:42;5.07;;;3.88;;
20336;SDS011;10326;53.660;10.200;2023-05-10T03:26:16;3.90;;;3.60;;
20336;SDS011;10326;53.660;10.200;2023-05-10T03:29:01;5.78;;;3.70;;
20336;SDS011;10326;53.660;10.200;2023-05-10T03:31:31;3.90;;;3.47;;
20336;SDS011;10326;53.660;10.200;2023-05-10T03:33:59;4.22;;;3.70;;
20336;SDS011;10326;53.660;10.200;2023-05-10T03:36:26;4.20;;;3.72;;
20336;SDS011;10326;53.660;10.200;2023-05-10T03:38:54;4.38;;;3.72;;
20336;SDS011;10326;53.660;10.200;2023-05-10T03:41:23;6.07;;;3.67;;
20336;SDS011;10326;53.660;10.200;2023-05-10T03:43:50;4.07;;;3.72;;
20336;SDS011;10326;53.660;10.200;2023-05-10T03:46:19;4.25;;;3.80;;
20336;SDS011;10326;53.660;10.200;2023-05-10T03:48:46;4.10;;;3.70;;
20336;SDS011;10326;53.660;10.200;2023-05-10T03:51:13;5.47;;;4.13;;
20336;SDS011;10326;53.660;10.200;2023-05-10T03:53:40;4.00;;;3.70;;
20336;SDS011;10326;53.660;10.200;2023-05-10T03:56:08;4.13;;;3.72;;
20336;SDS011;10326;53.660;10.200;2023-05-10T03:58:36;3.97;;;3.67;;
20336;SDS011;10326;53.660;10.200;2023-05-10T04:01:04;4.28;;;3.58;;
20336;SDS011;10326;53.660;10.200;2023-05-10T04:03:31;4.45;;;4.05;;
20336;SDS011;10326;53.660;10.200;2023-05-10T04:06:00;4.85;;;3.95;;
20336;SDS011;10326;53.660;10.200;2023-05-10T04:08:28;4.30;;;3.90;;
20336;SDS011;10326;53.660;10.200;2023-05-10T04:11:04;5.25;;;4.07;;
20336;SDS011;10326;53.660;10.200;2023-05-10T04:13:32;4.55;;;4.15;;
20336;SDS011;10326;53.660;10.200;2023-05-10T04:16:01;3.95;;;3.55;;
20336;SDS011;10326;53.660;10.200;2023-05-10T04:18:29;4.40;;;4.00;;
20336;SDS011;10326;53.660;10.200;2023-05-10T04:20:56;4.40;;;3.97;;
20336;SDS011;10326;53.660;10.200;2023-05-10T04:23:23;4.15;;;3.80;;
20336;SDS011;10326;53.660;10.200;2023-05-10T04:25:52;4.03;;;3.63;;
20336;SDS011;10326;53.660;10.200;2023-05-10T04:28:19;4.22;;;3.92;;
20336;SDS011;10326;53.660;10.200;2023-05-10T04:30:47;4.53;;;4.10;;
20336;SDS011;10326;53.660;10.200;2023-05-10T04:33:15;4.60;;;3.90;;
20336;SDS011;10326;53.660;10.200;2023-05-10T04:35:42;3.88;;;3.58;;
20336;SDS011;10326;53.660;10.200;2023-05-10T04:38:10;4.38;;;3.95;;
20336;SDS011;10326;53.660;10.200;2023-05-10T04:40:37;4.38;;;3.95;;
20336;SDS011;10326;53.660;10.200;2023-05-10T04:43:04;4.00;;;3.70;;
20336;SDS011;10326;53.660;10.200;2023-05-10T04:45:32;4.55;;;3.45;;
20336;SDS011;10326;53.660;10.200;2023-05-10T04:47:59;4.95;;;4.00;;
20336;SDS011;10326;53.660;10.200;2023-05-10T04:50:27;6.03;;;4.55;;
20336;SDS011;10326;53.660;10.200;2023-05-10T04:52:55;6.20;;;3.90;;
20336;SDS011;10326;53.660;10.200;2023-05-10T04:55:22;4.50;;;4.10;;
20336;SDS011;10326;53.660;10.200;2023-05-10T04:57:50;4.43;;;4.07;;
20336;SDS011;10326;53.660;10.200;2023-05-10T05:00:18;5.32;;;3.90;;
20336;SDS011;10326;53.660;10.200;2023-05-10T05:02:46;4.45;;;4.10;;
20336;SDS011;10326;53.660;10.200;2023-05-10T05:05:13;4.72;;;4.25;;
20336;SDS011;10326;53.660;10.200;2023-05-10T05:07:43;4.47;;;4.07;;
20336;SDS011;10326;53.660;10.200;2023-05-10T05:10:10;4.40;;;4.00;;
20336;SDS011;10326;53.660;10.200;2023-05-10T05:12:38;4.15;;;3.75;;
20336;SDS011;10326;53.660;10.200;2023-05-10T05:15:06;4.18;;;3.80;;
20336;SDS011;10326;53.660;10.200;2023-05-10T05:17:34;4.40;;;4.00;;
20336;SDS011;10326;53.660;10.200;2023-05-10T05:20:02;4.60;;;4.18;;
20336;SDS011;10326;53.660;10.200;2023-05-10T05:22:31;4.65;;;4.10;;
20336;SDS011;10326;53.660;10.200;2023-05-10T05:24:59;4.20;;;3.80;;
20336;SDS011;10326;53.660;10.200;2023-05-10T05:27:27;6.72;;;4.50;;
20336;SDS011;10326;53.660;10.200;2023-05-10T05:29:55;4.95;;;4.45;;
20336;SDS011;10326;53.660;10.200;2023-05-10T05:32:24;7.90;;;4.20;;
20336;SDS011;10326;53.660;10.200;2023-05-10T05:34:52;5.47;;;4.30;;
20336;SDS011;10326;53.660;10.200;2023-05-10T05:37:20;4.20;;;3.80;;
20336;SDS011;10326;53.660;10.200;2023-05-10T05:39:47;5.03;;;4.53;;
20336;SDS011;10326;53.660;10.200;2023-05-10T05:42:16;5.18;;;4.15;;
20336;SDS011;10326;53.660;10.200;2023-05-10T05:44:44;5.30;;;4.00;;
20336;SDS011;10326;53.660;10.200;2023-05-10T05:47:11;4.22;;;3.85;;
20336;SDS011;10326;53.660;10.200;2023-05-10T05:49:38;6.50;;;3.72;;
20336;SDS011;10326;53.660;10.200;2023-05-10T05:52:05;4.85;;;4.35;;
20336;SDS011;10326;53.660;10.200;2023-05-10T05:54:33;4.30;;;3.90;;
20336;SDS011;10326;53.660;10.200;2023-05-10T05:57:00;5.15;;;4.47;;
20336;SDS011;10326;53.660;10.200;2023-05-10T05:59:29;5.55;;;4.63;;
20336;SDS011;10326;53.660;10.200;2023-05-10T06:01:56;4.50;;;4.07;;
20336;SDS011;10326;53.660;10.200;2023-05-10T06:04:23;4.65;;;4.18;;
20336;SDS011;10326;53.660;10.200;2023-05-10T06:06:51;4.13;;;3.83;;
20336;SDS011;10326;53.660;10.200;2023-05-10T06:09:18;4.60;;;3.97;;
20336;SDS011;10326;53.660;10.200;2023-05-10T06:11:45;4.68;;;4.18;;
20336;SDS011;10326;53.660;10.200;2023-05-10T06:14:13;4.70;;;4.20;;
20336;SDS011;10326;53.660;10.200;2023-05-10T06:16:42;4.43;;;4.05;;
20336;SDS011;10326;53.660;10.200;2023-05-10T06:19:09;4.10;;;3.75;;
20336;SDS011;10326;53.660;10.200;2023-05-10T06:21:36;3.97;;;3.65;;
20336;SDS011;10326;53.660;10.200;2023-05-10T06:24:04;5.82;;;3.65;;
20336;SDS011;10326;53.660;10.200;2023-05-10T06:26:32;4.70;;;4.30;;
20336;SDS011;10326;53.660;10.200;2023-05-10T06:29:00;4.75;;;4.00;;
20336;SDS011;10326;53.660;10.200;2023-05-10T06:31:27;4.05;;;3.70;;
20336;SDS011;10326;53.660;10.200;2023-05-10T06:33:57;4.20;;;3.63;;
20336;SDS011;10326;53.660;10.200;2023-05-10T06:36:24;4.05;;;3.75;;
20336;SDS011;10326;53.660;10.200;2023-05-10T06:38:52;4.45;;;4.05;;
20336;SDS011;10326;53.660;10.200;2023-05-10T06:41:19;4.45;;;4.07;;
20336;SDS011;10326;53.660;10.200;2023-05-10T06:43:47;4.75;;;4.25;;
20336;SDS011;10326;53.660;10.200;2023-05-10T06:46:14;6.00;;;3.80;;
20336;SDS011;10326;53.660;10.200;2023-05-10T06:48:42;4.25;;;3.85;;
20336;SDS011;10326;53.660;10.200;2023-05-10T06:51:11;4.57;;;4.18;;
20336;SDS011;10326;53.660;10.200;2023-05-10T06:53:38;4.68;;;4.20;;
20336;SDS011;10326;53.660;10.200;2023-05-10T06:56:05;4.53;;;4.13;;
20336;SDS011;10326;53.660;10.200;2023-05-10T06:58:33;4.45;;;4.03;;
20336;SDS011;10326;53.660;10.200;2023-05-10T07:01:03;4.45;;;4.03;;
20336;SDS011;10326;53.660;10.200;2023-05-10T07:03:32;4.43;;;4.03;;
20336;SDS011;10326;53.660;10.200;2023-05-10T07:06:00;4.57;;;3.80;;
20336;SDS011;10326;53.660;10.200;2023-05-10T07:08:31;4.28;;;3.92;;
20336;SDS011;10326;53.660;10.200;2023-05-10T07:11:01;4.15;;;3.85;;
20336;SDS011;10326;53.660;10.200;2023-05-10T07:13:31;4.80;;;4.30;;
20336;SDS011;10326;53.660;10.200;2023-05-10T07:15:58;4.28;;;3.92;;
20336;SDS011;10326;53.660;10.200;2023-05-10T07:18:29;4.20;;;3.80;;
20336;SDS011;10326;53.660;10.200;2023-05-10T07:20:56;4.40;;;3.80;;
20336;SDS011;10326;53.660;10.200;2023-05-10T07:23:24;4.90;;;3.30;;
20336;SDS011;10326;53.660;10.200;2023-05-10T07:25:53;4.25;;;3.83;;
20336;SDS011;10326;53.660;10.200;2023-05-10T07:28:22;4.82;;;4.30;;
20336;SDS011;10326;53.660;10.200;2023-05-10T07:30:50;4.25;;;3.85;;
20336;SDS011;10326;53.660;10.200;2023-05-10T07:33:18;4.10;;;3.70;;
20336;SDS011;10326;53.660;10.200;2023-05-10T07:35:45;4.30;;;3.90;;
20336;SDS011;10326;53.660;10.200;2023-05-10T07:38:12;4.22;;;3.85;;
20336;SDS011;10326;53.660;10.200;2023-05-10T07:40:39;4.13;;;3.83;;
20336;SDS011;10326;53.660;10.200;2023-05-10T07:43:08;5.05;;;3.90;;
20336;SDS011;10326;53.660;10.200;2023-05-10T07:45:37;4.40;;;4.00;;
20336;SDS011;10326;53.660;10.200;2023-05-10T07:48:04;4.28;;;3.90;;
20336;SDS011;10326;53.660;10.200;2023-05-10T07:50:31;4.93;;;4.05;;
20336;SDS011;10326;53.660;10.200;2023-05-10T07:52:59;4.63;;;3.72;;
20336;SDS011;10326;53.660;10.200;2023-05-10T07:55:26;4.47;;;4.07;;
20336;SDS011;10326;53.660;10.200;2023-05-10T07:57:53;5.05;;;4.00;;
20336;SDS011;10326;53.660;10.200;2023-05-10T08:00:21;4.03;;;3.50;;
20336;SDS011;10326;53.660;10.200;2023-05-10T08:02:49;5.28;;;3.90;;
20336;SDS011;10326;53.660;10.200;2023-05-10T08:05:16;4.40;;;4.00;;
20336;SDS011;10326;53.660;10.200;2023-05-10T08:07:43;4.60;;;4.20;;
20336;SDS011;10326;53.660;10.200;2023-05-10T08:10:10;5.13;;;4.63;;
20336;SDS011;10326;53.660;10.200;2023-05-10T08:12:38;4.35;;;3.60;;
20336;SDS011;10326;53.660;10.200;2023-05-10T08:15:05;4.60;;;4.10;;
20336;SDS011;10326;53.660;10.200;2023-05-10T08:17:35;4.20;;;3.80;;
20336;SDS011;10326;53.660;10.200;2023-05-10T08:20:02;4.38;;;3.97;;
20336;SDS011;10326;53.660;10.200;2023-05-10T08:22:30;4.30;;;3.70;;
20336;SDS011;10326;53.660;10.200;2023-05-10T08:24:58;4.15;;;3.85;;
20336;SDS011;10326;53.660;10.200;2023-05-10T08:27:25;4.72;;;4.32;;
20336;SDS011;10326;53.660;10.200;2023-05-10T08:29:52;4.72;;;3.72;;
20336;SDS011;10326;53.660;10.200;2023-05-10T08:32:19;4.15;;;3.85;;
20336;SDS011;10326;53.660;10.200;2023-05-10T08:34:48;4.53;;;4.15;;
20336;SDS011;10326;53.660;10.200;2023-05-10T08:37:15;11.35;;;4.43;;
20336;SDS011;10326;53.660;10.200;2023-05-10T08:39:43;5.78;;;4.15;;
20336;SDS011;10326;53.660;10.200;2023-05-10T08:42:13;4.35;;;3.95;;
20336;SDS011;10326;53.660;10.200;2023-05-10T08:44:45;4.38;;;3.97;;
20336;SDS011;10326;53.660;10.200;2023-05-10T08:47:15;5.00;;;4.18;;
20336;SDS011;10326;53.660;10.200;2023-05-10T08:49:44;4.80;;;4.40;;
20336;SDS011;10326;53.660;10.200;2023-05-10T08:52:16;4.47;;;4.07;;
20336;SDS011;10326;53.660;10.200;2023-05-10T08:54:44;4.40;;;3.95;;
20336;SDS011;10326;53.660;10.200;2023-05-10T08:57:11;4.30;;;4.00;;
20336;SDS011;10326;53.660;10.200;2023-05-10T08:59:39;4.78;;;4.22;;
20336;SDS011;10326;53.660;10.200;2023-05-10T09:02:07;4.15;;;3.85;;
20336;SDS011;10326;53.660;10.200;2023-05-10T09:04:37;4.40;;;4.00;;
20336;SDS011;10326;53.660;10.200;2023-05-10T09:07:06;4.45;;;4.15;;
20336;SDS011;10326;53.660;10.200;2023-05-10T09:09:34;4.10;;;3.80;;
20336;SDS011;10326;53.660;10.200;2023-05-10T09:12:01;4.47;;;4.18;;
20336;SDS011;10326;53.660;10.200;2023-05-10T09:14:29;4.30;;;3.90;;
20336;SDS011;10326;53.660;10.200;2023-05-10T09:17:00;4.32;;;3.70;;
20336;SDS011;10326;53.660;10.200;2023-05-10T09:19:28;4.47;;;4.00;;
20336;SDS011;10326;53.660;10.200;2023-05-10T09:21:55;5.22;;;3.88;;
20336;SDS011;10326;53.660;10.200;2023-05-10T09:24:26;4.05;;;3.67;;
20336;SDS011;10326;53.660;10.200;2023-05-10T09:26:53;4.68;;;4.20;;
20336;SDS011;10326;53.660;10.200;2023-05-10T09:29:22;4.80;;;3.90;;
20336;SDS011;10326;53.660;10.200;2023-05-10T09:31:50;5.88;;;3.47;;
20336;SDS011;10326;53.660;10.200;2023-05-10T09:34:22;4.57;;;4.18;;
20336;SDS011;10326;53.660;10.200;2023-05-10T09:36:58;4.68;;;4.28;;
20336;SDS011;10326;53.660;10.200;2023-05-10T09:39:31;3.88;;;3.58;;
20336;SDS011;10326;53.660;10.200;2023-05-10T09:41:58;3.58;;;3.28;;
20336;SDS011;10326;53.660;10.200;2023-05-10T09:44:28;4.85;;;3.75;;
20336;SDS011;10326;53.660;10.200;2023-05-10T09:46:57;4.60;;;4.20;;
20336;SDS011;10326;53.660;10.200;2023-05-10T09:49:24;5.18;;;3.83;;
20336;SDS011;10326;53.660;10.200;2023-05-10T09:51:59;4.97;;;4.57;;
20336;SDS011;10326;53.660;10.200;2023-05-10T09:54:28;4.57;;;4.18;;
20336;SDS011;10326;53.660;10.200;2023-05-10T09:56:58;4.68;;;4.07;;
20336;SDS011;10326;53.660;10.200;2023-05-10T09:59:26;4.63;;;4.22;;
20336;SDS011;10326;53.660;10.200;2023-05-10T10:01:56;4.38;;;4.07;;
20336;SDS011;10326;53.660;10.200;2023-05-10T10:04:24;4.47;;;4.07;;
20336;SDS011;10326;53.660;10.200;2023-05-10T10:06:58;5.07;;;4.57;;
20336;SDS011;10326;53.660;10.200;2023-05-10T10:09:27;4.75;;;4.30;;
20336;SDS011;10326;53.660;10.200;2023-05-10T10:11:56;4.43;;;4.03;;
20336;SDS011;10326;53.660;10.200;2023-05-10T10:14:24;4.72;;;4.32;;
20336;SDS011;10326;53.660;10.200;2023-05-10T10:16:52;5.20;;;4.57;;
20336;SDS011;10326;53.660;10.200;2023-05-10T10:19:20;5.43;;;4.53;;
20336;SDS011;10326;53.660;10.200;2023-05-10T10:21:48;5.63;;;4.80;;
20336;SDS011;10326;53.660;10.200;2023-05-10T10:24:16;4.90;;;4.40;;
20336;SDS011;10326;53.660;10.200;2023-05-10T10:26:43;5.10;;;4.70;;
20336;SDS011;10326;53.660;10.200;2023-05-10T10:29:18;4.72;;;4.32;;
20336;SDS011;10326;53.660;10.200;2023-05-10T10:31:52;5.70;;;5.20;;
20336;SDS011;10326;53.660;10.200;2023-05-10T10:34:32;5.28;;;4.88;;
20336;SDS011;10326;53.660;10.200;2023-05-10T10:37:03;5.15;;;4.70;;
20336;SDS011;10326;53.660;10.200;2023-05-10T10:39:32;5.00;;;4.60;;
20336;SDS011;10326;53.660;10.200;2023-05-10T10:42:03;5.22;;;4.65;;
20336;SDS011;10326;53.660;10.200;2023-05-10T10:44:35;5.32;;;4.82;;
20336;SDS011;10326;53.660;10.200;2023-05-10T10:47:09;5.55;;;4.80;;
20336;SDS011;10326;53.660;10.200;2023-05-10T10:50:02;5.35;;;4.80;;
20336;SDS011;10326;53.660;10.200;2023-05-10T10:52:32;5.78;;;5.00;;
20336;SDS011;10326;53.660;10.200;2023-05-10T10:55:01;5.57;;;5.10;;
20336;SDS011;10326;53.660;10.200;2023-05-10T10:57:32;6.50;;;5.63;;
20336;SDS011;10326;53.660;10.200;2023-05-10T11:00:20;10.90;;;5.78;;
20336;SDS011;10326;53.660;10.200;2023-05-10T11:02:55;6.43;;;5.93;;
20336;SDS011;10326;53.660;10.200;2023-05-10T11:05:36;6.43;;;5.93;;
20336;SDS011;10326;53.660;10.200;2023-05-10T11:08:15;6.40;;;5.80;;
20336;SDS011;10326;53.660;10.200;2023-05-10T11:11:03;7.10;;;6.40;;
20336;SDS011;10326;53.660;10.200;2023-05-10T11:13:37;6.63;;;6.03;;
20336;SDS011;10326;53.660;10.200;2023-05-10T11:16:12;7.20;;;6.60;;
20336;SDS011;10326;53.660;10.200;2023-05-10T11:18:51;7.30;;;6.60;;
20336;SDS011;10326;53.660;10.200;2023-05-10T11:21:28;7.30;;;6.70;;
20336;SDS011;10326;53.660;10.200;2023-05-10T11:23:57;7.25;;;6.65;;
20336;SDS011;10326;53.660;10.200;2023-05-10T11:26:25;7.07;;;6.38;;
20336;SDS011;10326;53.660;10.200;2023-05-10T11:28:58;6.47;;;5.95;;
20336;SDS011;10326;53.660;10.200;2023-05-10T11:31:28;7.35;;;6.60;;
20336;SDS011;10326;53.660;10.200;2023-05-10T11:33:57;7.85;;;7.15;;
20336;SDS011;10326;53.660;10.200;2023-05-10T11:36:27;7.40;;;6.80;;
20336;SDS011;10326;53.660;10.200;2023-05-10T11:38:56;7.28;;;6.57;;
20336;SDS011;10326;53.660;10.200;2023-05-10T11:41:24;7.53;;;6.80;;
20336;SDS011;10326;53.660;10.200;2023-05-10T11:43:54;7.20;;;6.50;;
20336;SDS011;10326;53.660;10.200;2023-05-10T11:46:23;7.60;;;6.97;;
20336;SDS011;10326;53.660;10.200;2023-05-10T11:48:53;7.55;;;6.85;;
20336;SDS011;10326;53.660;10.200;2023-05-10T11:51:25;8.20;;;7.45;;
20336;SDS011;10326;53.660;10.200;2023-05-10T11:53:53;8.88;;;7.30;;
20336;SDS011;10326;53.660;10.200;2023-05-10T11:56:22;7.60;;;7.00;;
20336;SDS011;10326;53.660;10.200;2023-05-10T11:58:53;7.63;;;6.93;;
20336;SDS011;10326;53.660;10.200;2023-05-10T12:01:24;7.20;;;6.50;;
20336;SDS011;10326;53.660;10.200;2023-05-10T12:03:55;7.15;;;6.55;;
20336;SDS011;10326;53.660;10.200;2023-05-10T12:06:26;7.80;;;7.10;;
20336;SDS011;10326;53.660;10.200;2023-05-10T12:08:56;7.80;;;7.10;;
20336;SDS011;10326;53.660;10.200;2023-05-10T12:11:24;7.75;;;7.07;;
20336;SDS011;10326;53.660;10.200;2023-05-10T12:13:53;7.32;;;6.80;;
20336;SDS011;10326;53.660;10.200;2023-05-10T12:16:23;7.05;;;6.47;;
20336;SDS011;10326;53.660;10.200;2023-05-10T12:18:53;7.53;;;6.90;;
20336;SDS011;10326;53.660;10.200;2023-05-10T12:21:24;7.10;;;6.50;;
20336;SDS011;10326;53.660;10.200;2023-05-10T12:23:54;7.43;;;6.78;;
20336;SDS011;10326;53.660;10.200;2023-05-10T12:26:27;7.80;;;7.10;;
20336;SDS011;10326;53.660;10.200;2023-05-10T12:28:55;7.03;;;6.43;;
20336;SDS011;10326;53.660;10.200;2023-05-10T12:31:49;7.85;;;7.25;;
20336;SDS011;10326;53.660;10.200;2023-05-10T12:34:24;6.60;;;6.00;;
20336;SDS011;10326;53.660;10.200;2023-05-10T12:36:52;7.18;;;6.57;;
20336;SDS011;10326;53.660;10.200;2023-05-10T12:39:20;6.82;;;6.22;;
20336;SDS011;10326;53.660;10.200;2023-05-10T12:41:47;7.07;;;6.47;;
20336;SDS011;10326;53.660;10.200;2023-05-10T12:44:14;7.38;;;6.78;;
20336;SDS011;10326;53.660;10.200;2023-05-10T12:46:42;7.22;;;6.53;;
20336;SDS011;10326;53.660;10.200;2023-05-10T12:49:09;6.55;;;6.05;;
20336;SDS011;10326;53.660;10.200;2023-05-10T12:51:38;7.00;;;6.35;;
20336;SDS011;10326;53.660;10.200;2023-05-10T12:54:05;7.35;;;6.68;;
20336;SDS011;10326;53.660;10.200;2023-05-10T12:56:32;7.07;;;6.43;;
20336;SDS011;10326;53.660;10.200;2023-05-10T12:58:59;7.25;;;6.65;;
20336;SDS011;10326;53.660;10.200;2023-05-10T13:01:26;7.07;;;6.38;;
20336;SDS011;10326;53.660;10.200;2023-05-10T13:03:54;6.78;;;6.18;;
20336;SDS011;10326;53.660;10.200;2023-05-10T13:06:21;7.20;;;6.60;;
20336;SDS011;10326;53.660;10.200;2023-05-10T13:08:50;7.03;;;6.35;;
20336;SDS011;10326;53.660;10.200;2023-05-10T13:11:17;6.43;;;5.90;;
20336;SDS011;10326;53.660;10.200;2023-05-10T13:13:47;6.38;;;5.78;;
20336;SDS011;10326;53.660;10.200;2023-05-10T13:16:14;6.70;;;6.10;;
20336;SDS011;10326;53.660;10.200;2023-05-10T13:18:41;6.55;;;5.95;;
20336;SDS011;10326;53.660;10.200;2023-05-10T13:21:08;11.35;;;6.60;;
20336;SDS011;10326;53.660;10.200;2023-05-10T13:23:36;6.53;;;5.93;;
20336;SDS011;10326;53.660;10.200;2023-05-10T13:26:05;5.75;;;5.28;;
20336;SDS011;10326;53.660;10.200;2023-05-10T13:28:32;6.25;;;5.75;;
20336;SDS011;10326;53.660;10.200;2023-05-10T13:30:59;6.20;;;5.70;;
20336;SDS011;10326;53.660;10.200;2023-05-10T13:33:26;5.85;;;5.35;;
20336;SDS011;10326;53.660;10.200;2023-05-10T13:35:53;5.38;;;4.85;;
20336;SDS011;10326;53.660;10.200;2023-05-10T13:38:23;4.90;;;4.50;;
20336;SDS011;10326;53.660;10.200;2023-05-10T13:40:50;4.93;;;4.53;;
20336;SDS011;10326;53.660;10.200;2023-05-10T13:43:20;4.65;;;4.25;;
20336;SDS011;10326;53.660;10.200;2023-05-10T13:45:47;5.68;;;5.10;;
20336;SDS011;10326;53.660;10.200;2023-05-10T13:48:14;6.20;;;5.65;;
20336;SDS011;10326;53.660;10.200;2023-05-10T13:50:42;5.75;;;5.25;;
20336;SDS011;10326;53.660;10.200;2023-05-10T13:53:10;5.47;;;4.97;;
20336;SDS011;10326;53.660;10.200;2023-05-10T13:55:37;5.32;;;4.82;;
20336;SDS011;10326;53.660;10.200;2023-05-10T13:58:04;5.50;;;5.00;;
20336;SDS011;10326;53.660;10.200;2023-05-10T14:00:33;5.28;;;4.80;;
20336;SDS011;10326;53.660;10.200;2023-05-10T14:03:00;6.13;;;5.63;;
20336;SDS011;10326;53.660;10.200;2023-05-10T14:05:29;5.80;;;5.30;;
20336;SDS011;10326;53.660;10.200;2023-05-10T14:07:57;5.03;;;4.63;;
20336;SDS011;10326;53.660;10.200;2023-05-10T14:10:24;5.43;;;5.03;;
20336;SDS011;10326;53.660;10.200;2023-05-10T14:12:51;4.57;;;4.28;;
20336;SDS011;10326;53.660;10.200;2023-05-10T14:15:18;5.25;;;4.75;;
20336;SDS011;10326;53.660;10.200;2023-05-10T14:17:47;5.22;;;4.72;;
20336;SDS011;10326;53.660;10.200;2023-05-10T14:20:15;5.07;;;4.40;;
20336;SDS011;10326;53.660;10.200;2023-05-10T14:22:43;4.65;;;4.35;;
20336;SDS011;10326;53.660;10.200;2023-05-10T14:25:10;5.20;;;4.80;;
20336;SDS011;10326;53.660;10.200;2023-05-10T14:27:37;4.32;;;3.97;;
20336;SDS011;10326;53.660;10.200;2023-05-10T14:30:05;5.20;;;4.80;;
20336;SDS011;10326;53.660;10.200;2023-05-10T14:32:34;4.72;;;4.32;;
20336;SDS011;10326;53.660;10.200;2023-05-10T14:35:03;5.20;;;4.65;;
20336;SDS011;10326;53.660;10.200;2023-05-10T14:37:32;4.90;;;4.50;;
20336;SDS011;10326;53.660;10.200;2023-05-10T14:40:00;4.07;;;3.78;;
20336;SDS011;10326;53.660;10.200;2023-05-10T14:42:27;3.95;;;3.65;;
20336;SDS011;10326;53.660;10.200;2023-05-10T14:44:55;4.28;;;3.97;;
20336;SDS011;10326;53.660;10.200;2023-05-10T14:47:24;4.53;;;4.13;;
20336;SDS011;10326;53.660;10.200;2023-05-10T14:49:53;4.00;;;3.70;;